sensor_id;sensor_type;location;lat;lon;timestamp;P1;durP1;ratioP1;P2;durP2;ratioP2
49678;SDS011;35570;48.218;16.326;2024-02-26T00:00:14;5.85;;;2.92;;
49678;SDS011;35570;48.218;16.326;2024-02-26T00:02:40;6.03;;;3.05;;
49678;SDS011;35570;48.218;16.326;2024-02-26T00:05:07;8.77;;;3.50;;
49678;SDS011;35570;48.218;16.326;2024-02-26T00:07:51;7.38;;;3.20;;
49678;SDS011;35570;48.218;16.326;2024-02-26T00:12:44;7.78;;;3.28;;
49678;SDS011;35570;48.218;16.326;2024-02-26T00:15:10;7.75;;;3.10;;
49678;SDS011;35570;48.218;16.326;2024-02-26T00:20:23;7.88;;;3.80;;
49678;SDS011;35570;48.218;16.326;2024-02-26T00:23:00;8.15;;;3.35;;
49678;SDS011;35570;48.218;16.326;2024-02-26T00:25:26;9.13;;;3.90;;
49678;SDS011;35570;48.218;16.326;2024-02-26T00:27:52;6.80;;;3.25;;
49678;SDS011;35570;48.218;16.326;2024-02-26T00:30:33;7.30;;;3.53;;
49678;SDS011;35570;48.218;16.326;2024-02-26T00:33:03;7.03;;;3.65;;
49678;SDS011;35570;48.218;16.326;2024-02-26T00:35:29;9.02;;;4.00;;
49678;SDS011;35570;48.218;16.326;2024-02-26T00:37:55;9.05;;;3.67;;
49678;SDS011;35570;48.218;16.326;2024-02-26T00:40:22;6.95;;;3.63;;
49678;SDS011;35570;48.218;16.326;2024-02-26T00:43:07;6.65;;;4.03;;
49678;SDS011;35570;48.218;16.326;2024-02-26T00:45:33;9.80;;;4.00;;
49678;SDS011;35570;48.218;16.326;2024-02-26T00:47:59;6.50;;;3.67;;
49678;SDS011;35570;48.218;16.326;2024-02-26T00:50:30;8.80;;;3.88;;
49678;SDS011;35570;48.218;16.326;2024-02-26T00:52:56;9.88;;;4.20;;
49678;SDS011;35570;48.218;16.326;2024-02-26T00:55:22;9.60;;;4.13;;
49678;SDS011;35570;48.218;16.326;2024-02-26T00:57:47;8.05;;;3.80;;
49678;SDS011;35570;48.218;16.326;2024-02-26T01:00:24;10.30;;;4.00;;
49678;SDS011;35570;48.218;16.326;2024-02-26T01:02:50;7.20;;;3.45;;
49678;SDS011;35570;48.218;16.326;2024-02-26T01:05:16;6.43;;;3.53;;
49678;SDS011;35570;48.218;16.326;2024-02-26T01:11:12;8.68;;;4.00;;
49678;SDS011;35570;48.218;16.326;2024-02-26T01:13:38;7.95;;;4.10;;
49678;SDS011;35570;48.218;16.326;2024-02-26T01:16:04;7.43;;;3.67;;
49678;SDS011;35570;48.218;16.326;2024-02-26T01:18:35;8.93;;;3.75;;
49678;SDS011;35570;48.218;16.326;2024-02-26T01:21:01;7.50;;;3.03;;
49678;SDS011;35570;48.218;16.326;2024-02-26T01:23:27;6.57;;;2.80;;
49678;SDS011;35570;48.218;16.326;2024-02-26T01:26:09;8.23;;;3.30;;
49678;SDS011;35570;48.218;16.326;2024-02-26T01:28:34;5.80;;;2.85;;
49678;SDS011;35570;48.218;16.326;2024-02-26T01:31:00;6.65;;;3.03;;
49678;SDS011;35570;48.218;16.326;2024-02-26T01:33:27;5.75;;;3.28;;
49678;SDS011;35570;48.218;16.326;2024-02-26T01:35:54;7.85;;;3.25;;
49678;SDS011;35570;48.218;16.326;2024-02-26T01:38:20;7.70;;;3.40;;
49678;SDS011;35570;48.218;16.326;2024-02-26T01:40:45;6.45;;;3.10;;
49678;SDS011;35570;48.218;16.326;2024-02-26T01:43:11;7.22;;;3.10;;
49678;SDS011;35570;48.218;16.326;2024-02-26T01:45:36;10.38;;;3.40;;
49678;SDS011;35570;48.218;16.326;2024-02-26T01:48:02;6.65;;;3.25;;
49678;SDS011;35570;48.218;16.326;2024-02-26T01:50:28;6.88;;;3.63;;
49678;SDS011;35570;48.218;16.326;2024-02-26T01:52:54;4.68;;;3.17;;
49678;SDS011;35570;48.218;16.326;2024-02-26T01:55:21;6.95;;;3.60;;
49678;SDS011;35570;48.218;16.326;2024-02-26T01:57:49;7.03;;;4.28;;
49678;SDS011;35570;48.218;16.326;2024-02-26T02:03:40;7.22;;;3.55;;
49678;SDS011;35570;48.218;16.326;2024-02-26T02:09:14;8.90;;;3.63;;
49678;SDS011;35570;48.218;16.326;2024-02-26T02:11:40;7.03;;;4.05;;
49678;SDS011;35570;48.218;16.326;2024-02-26T02:14:24;7.18;;;3.50;;
49678;SDS011;35570;48.218;16.326;2024-02-26T02:17:07;7.75;;;3.75;;
49678;SDS011;35570;48.218;16.326;2024-02-26T02:19:32;5.43;;;3.05;;
49678;SDS011;35570;48.218;16.326;2024-02-26T02:21:58;9.63;;;4.05;;
49678;SDS011;35570;48.218;16.326;2024-02-26T02:24:23;7.85;;;3.60;;
49678;SDS011;35570;48.218;16.326;2024-02-26T02:26:49;6.30;;;3.30;;
49678;SDS011;35570;48.218;16.326;2024-02-26T02:36:00;6.38;;;3.63;;
49678;SDS011;35570;48.218;16.326;2024-02-26T02:41:34;6.97;;;3.80;;
49678;SDS011;35570;48.218;16.326;2024-02-26T02:43:59;8.55;;;3.58;;
49678;SDS011;35570;48.218;16.326;2024-02-26T02:46:25;5.97;;;3.45;;
49678;SDS011;35570;48.218;16.326;2024-02-26T02:55:49;8.32;;;3.35;;
49678;SDS011;35570;48.218;16.326;2024-02-26T03:01:06;5.72;;;3.08;;
49678;SDS011;35570;48.218;16.326;2024-02-26T03:03:32;6.43;;;3.05;;
49678;SDS011;35570;48.218;16.326;2024-02-26T03:06:02;6.40;;;2.90;;
49678;SDS011;35570;48.218;16.326;2024-02-26T03:08:35;5.57;;;2.85;;
49678;SDS011;35570;48.218;16.326;2024-02-26T03:11:04;4.60;;;2.42;;
49678;SDS011;35570;48.218;16.326;2024-02-26T03:13:30;9.32;;;3.28;;
49678;SDS011;35570;48.218;16.326;2024-02-26T03:22:14;6.10;;;2.75;;
49678;SDS011;35570;48.218;16.326;2024-02-26T03:31:45;6.07;;;2.80;;
49678;SDS011;35570;48.218;16.326;2024-02-26T03:34:12;9.38;;;2.95;;
49678;SDS011;35570;48.218;16.326;2024-02-26T03:36:39;5.30;;;2.60;;
49678;SDS011;35570;48.218;16.326;2024-02-26T03:39:06;5.60;;;2.88;;
49678;SDS011;35570;48.218;16.326;2024-02-26T03:41:34;5.18;;;3.00;;
49678;SDS011;35570;48.218;16.326;2024-02-26T03:44:08;5.90;;;3.00;;
49678;SDS011;35570;48.218;16.326;2024-02-26T03:46:33;5.38;;;2.90;;
49678;SDS011;35570;48.218;16.326;2024-02-26T03:48:59;5.75;;;3.13;;
49678;SDS011;35570;48.218;16.326;2024-02-26T03:51:26;7.38;;;3.10;;
49678;SDS011;35570;48.218;16.326;2024-02-26T03:53:56;6.00;;;3.00;;
49678;SDS011;35570;48.218;16.326;2024-02-26T03:56:23;6.32;;;3.08;;
49678;SDS011;35570;48.218;16.326;2024-02-26T03:58:49;7.53;;;2.83;;
49678;SDS011;35570;48.218;16.326;2024-02-26T04:01:28;6.45;;;3.08;;
49678;SDS011;35570;48.218;16.326;2024-02-26T04:06:38;7.72;;;3.03;;
49678;SDS011;35570;48.218;16.326;2024-02-26T04:09:04;5.78;;;3.15;;
49678;SDS011;35570;48.218;16.326;2024-02-26T04:11:42;7.72;;;3.17;;
49678;SDS011;35570;48.218;16.326;2024-02-26T04:14:10;6.03;;;2.90;;
49678;SDS011;35570;48.218;16.326;2024-02-26T04:16:37;7.68;;;3.25;;
49678;SDS011;35570;48.218;16.326;2024-02-26T04:19:03;8.52;;;3.28;;
49678;SDS011;35570;48.218;16.326;2024-02-26T04:21:28;5.63;;;3.05;;
49678;SDS011;35570;48.218;16.326;2024-02-26T04:24:01;6.30;;;2.83;;
49678;SDS011;35570;48.218;16.326;2024-02-26T04:26:27;7.05;;;2.83;;
49678;SDS011;35570;48.218;16.326;2024-02-26T04:28:54;4.78;;;2.92;;
49678;SDS011;35570;48.218;16.326;2024-02-26T04:40:35;5.10;;;3.13;;
49678;SDS011;35570;48.218;16.326;2024-02-26T04:43:01;4.82;;;2.78;;
49678;SDS011;35570;48.218;16.326;2024-02-26T04:55:02;7.40;;;3.45;;
49678;SDS011;35570;48.218;16.326;2024-02-26T04:57:28;9.20;;;3.50;;
49678;SDS011;35570;48.218;16.326;2024-02-26T05:09:24;7.82;;;3.80;;
49678;SDS011;35570;48.218;16.326;2024-02-26T05:11:49;11.07;;;4.18;;
49678;SDS011;35570;48.218;16.326;2024-02-26T05:17:13;5.43;;;3.65;;
49678;SDS011;35570;48.218;16.326;2024-02-26T05:19:39;10.68;;;3.80;;
49678;SDS011;35570;48.218;16.326;2024-02-26T05:22:04;8.77;;;3.70;;
49678;SDS011;35570;48.218;16.326;2024-02-26T05:27:18;7.05;;;4.00;;
49678;SDS011;35570;48.218;16.326;2024-02-26T05:29:44;10.38;;;4.40;;
49678;SDS011;35570;48.218;16.326;2024-02-26T05:35:56;6.93;;;4.18;;
49678;SDS011;35570;48.218;16.326;2024-02-26T05:38:26;6.10;;;4.07;;
49678;SDS011;35570;48.218;16.326;2024-02-26T05:40:52;8.27;;;4.38;;
49678;SDS011;35570;48.218;16.326;2024-02-26T05:43:17;6.95;;;4.18;;
49678;SDS011;35570;48.218;16.326;2024-02-26T05:45:43;5.53;;;4.05;;
49678;SDS011;35570;48.218;16.326;2024-02-26T05:48:11;7.63;;;4.50;;
49678;SDS011;35570;48.218;16.326;2024-02-26T05:50:36;9.63;;;5.05;;
49678;SDS011;35570;48.218;16.326;2024-02-26T05:53:02;7.85;;;4.80;;
49678;SDS011;35570;48.218;16.326;2024-02-26T05:55:28;11.43;;;6.30;;
49678;SDS011;35570;48.218;16.326;2024-02-26T06:04:22;16.08;;;10.13;;
49678;SDS011;35570;48.218;16.326;2024-02-26T06:10:15;7.72;;;5.50;;
49678;SDS011;35570;48.218;16.326;2024-02-26T06:12:41;7.40;;;5.20;;
49678;SDS011;35570;48.218;16.326;2024-02-26T06:15:07;7.47;;;5.10;;
49678;SDS011;35570;48.218;16.326;2024-02-26T06:17:37;11.13;;;5.85;;
49678;SDS011;35570;48.218;16.326;2024-02-26T06:20:03;10.10;;;6.13;;
49678;SDS011;35570;48.218;16.326;2024-02-26T06:22:31;9.50;;;5.68;;
49678;SDS011;35570;48.218;16.326;2024-02-26T06:27:53;8.15;;;4.82;;
49678;SDS011;35570;48.218;16.326;2024-02-26T06:30:19;8.55;;;4.93;;
49678;SDS011;35570;48.218;16.326;2024-02-26T06:32:50;9.60;;;4.10;;
49678;SDS011;35570;48.218;16.326;2024-02-26T06:38:48;6.60;;;4.30;;
49678;SDS011;35570;48.218;16.326;2024-02-26T06:44:41;7.18;;;4.30;;
49678;SDS011;35570;48.218;16.326;2024-02-26T06:50:34;5.22;;;3.90;;
49678;SDS011;35570;48.218;16.326;2024-02-26T06:56:03;7.25;;;4.13;;
49678;SDS011;35570;48.218;16.326;2024-02-26T06:58:29;7.60;;;3.85;;
49678;SDS011;35570;48.218;16.326;2024-02-26T07:01:11;7.88;;;4.32;;
49678;SDS011;35570;48.218;16.326;2024-02-26T07:06:45;11.35;;;4.38;;
49678;SDS011;35570;48.218;16.326;2024-02-26T07:09:11;8.75;;;4.53;;
49678;SDS011;35570;48.218;16.326;2024-02-26T07:11:37;7.60;;;4.63;;
49678;SDS011;35570;48.218;16.326;2024-02-26T07:14:04;8.63;;;4.57;;
49678;SDS011;35570;48.218;16.326;2024-02-26T07:16:30;6.55;;;4.10;;
49678;SDS011;35570;48.218;16.326;2024-02-26T07:19:10;8.23;;;4.70;;
49678;SDS011;35570;48.218;16.326;2024-02-26T07:21:35;6.72;;;3.80;;
49678;SDS011;35570;48.218;16.326;2024-02-26T07:27:28;9.10;;;4.47;;
49678;SDS011;35570;48.218;16.326;2024-02-26T07:33:12;6.57;;;3.90;;
49678;SDS011;35570;48.218;16.326;2024-02-26T07:35:38;10.07;;;5.53;;
49678;SDS011;35570;48.218;16.326;2024-02-26T07:38:04;9.07;;;5.75;;
49678;SDS011;35570;48.218;16.326;2024-02-26T07:40:30;7.60;;;4.45;;
49678;SDS011;35570;48.218;16.326;2024-02-26T07:42:56;10.88;;;4.68;;
49678;SDS011;35570;48.218;16.326;2024-02-26T07:45:22;9.30;;;4.57;;
49678;SDS011;35570;48.218;16.326;2024-02-26T07:47:48;6.38;;;4.45;;
49678;SDS011;35570;48.218;16.326;2024-02-26T07:50:13;7.35;;;4.50;;
49678;SDS011;35570;48.218;16.326;2024-02-26T07:52:39;8.52;;;4.90;;
49678;SDS011;35570;48.218;16.326;2024-02-26T07:55:05;8.30;;;4.45;;
49678;SDS011;35570;48.218;16.326;2024-02-26T07:57:34;9.60;;;4.47;;
49678;SDS011;35570;48.218;16.326;2024-02-26T08:00:00;7.05;;;4.10;;
49678;SDS011;35570;48.218;16.326;2024-02-26T08:02:26;6.75;;;4.25;;
49678;SDS011;35570;48.218;16.326;2024-02-26T08:04:58;8.07;;;3.97;;
49678;SDS011;35570;48.218;16.326;2024-02-26T08:10:46;6.45;;;4.13;;
49678;SDS011;35570;48.218;16.326;2024-02-26T08:13:12;8.90;;;4.20;;
49678;SDS011;35570;48.218;16.326;2024-02-26T08:15:38;7.07;;;4.00;;
49678;SDS011;35570;48.218;16.326;2024-02-26T08:18:04;8.35;;;4.28;;
49678;SDS011;35570;48.218;16.326;2024-02-26T08:23:52;5.00;;;3.55;;
49678;SDS011;35570;48.218;16.326;2024-02-26T08:26:34;8.30;;;4.40;;
49678;SDS011;35570;48.218;16.326;2024-02-26T08:28:59;7.50;;;4.25;;
49678;SDS011;35570;48.218;16.326;2024-02-26T08:31:25;9.73;;;4.43;;
49678;SDS011;35570;48.218;16.326;2024-02-26T08:56:40;5.80;;;3.75;;
49678;SDS011;35570;48.218;16.326;2024-02-26T08:59:06;7.00;;;3.70;;
49678;SDS011;35570;48.218;16.326;2024-02-26T09:01:36;7.07;;;3.20;;
49678;SDS011;35570;48.218;16.326;2024-02-26T09:07:28;7.35;;;3.80;;
49678;SDS011;35570;48.218;16.326;2024-02-26T09:09:56;8.18;;;3.60;;
49678;SDS011;35570;48.218;16.326;2024-02-26T09:12:22;7.38;;;3.80;;
49678;SDS011;35570;48.218;16.326;2024-02-26T09:14:47;4.50;;;3.30;;
49678;SDS011;35570;48.218;16.326;2024-02-26T09:17:13;5.72;;;3.63;;
49678;SDS011;35570;48.218;16.326;2024-02-26T09:19:39;6.13;;;3.38;;
49678;SDS011;35570;48.218;16.326;2024-02-26T09:22:04;6.22;;;3.40;;
49678;SDS011;35570;48.218;16.326;2024-02-26T09:24:30;6.45;;;3.20;;
49678;SDS011;35570;48.218;16.326;2024-02-26T09:26:56;6.13;;;3.08;;
49678;SDS011;35570;48.218;16.326;2024-02-26T09:29:22;6.00;;;2.85;;
49678;SDS011;35570;48.218;16.326;2024-02-26T09:34:37;5.18;;;3.25;;
49678;SDS011;35570;48.218;16.326;2024-02-26T09:37:05;5.78;;;2.38;;
49678;SDS011;35570;48.218;16.326;2024-02-26T09:39:31;8.63;;;2.60;;
49678;SDS011;35570;48.218;16.326;2024-02-26T09:41:56;5.57;;;2.47;;
49678;SDS011;35570;48.218;16.326;2024-02-26T09:44:22;4.55;;;2.22;;
49678;SDS011;35570;48.218;16.326;2024-02-26T09:46:49;4.25;;;2.33;;
49678;SDS011;35570;48.218;16.326;2024-02-26T09:49:18;4.45;;;1.88;;
49678;SDS011;35570;48.218;16.326;2024-02-26T09:51:52;4.60;;;2.15;;
49678;SDS011;35570;48.218;16.326;2024-02-26T10:01:19;3.47;;;1.65;;
49678;SDS011;35570;48.218;16.326;2024-02-26T10:03:47;5.75;;;1.60;;
49678;SDS011;35570;48.218;16.326;2024-02-26T10:06:17;4.97;;;1.63;;
49678;SDS011;35570;48.218;16.326;2024-02-26T10:11:32;6.25;;;1.70;;
49678;SDS011;35570;48.218;16.326;2024-02-26T10:13:58;2.45;;;1.40;;
49678;SDS011;35570;48.218;16.326;2024-02-26T10:16:25;4.22;;;1.40;;
49678;SDS011;35570;48.218;16.326;2024-02-26T10:22:13;4.22;;;1.65;;
49678;SDS011;35570;48.218;16.326;2024-02-26T10:24:39;4.60;;;1.55;;
49678;SDS011;35570;48.218;16.326;2024-02-26T10:27:04;4.07;;;1.55;;
49678;SDS011;35570;48.218;16.326;2024-02-26T10:29:30;4.30;;;1.90;;
49678;SDS011;35570;48.218;16.326;2024-02-26T10:38:44;5.25;;;2.05;;
49678;SDS011;35570;48.218;16.326;2024-02-26T10:41:12;4.05;;;1.98;;
49678;SDS011;35570;48.218;16.326;2024-02-26T10:43:40;3.90;;;1.33;;
49678;SDS011;35570;48.218;16.326;2024-02-26T10:56:03;5.75;;;1.60;;
49678;SDS011;35570;48.218;16.326;2024-02-26T10:58:32;3.17;;;1.40;;
49678;SDS011;35570;48.218;16.326;2024-02-26T11:00:59;4.95;;;1.38;;
49678;SDS011;35570;48.218;16.326;2024-02-26T11:03:26;2.35;;;1.23;;
49678;SDS011;35570;48.218;16.326;2024-02-26T11:06:09;4.63;;;1.65;;
49678;SDS011;35570;48.218;16.326;2024-02-26T11:11:01;2.28;;;1.30;;
49678;SDS011;35570;48.218;16.326;2024-02-26T11:13:28;3.88;;;1.50;;
49678;SDS011;35570;48.218;16.326;2024-02-26T11:15:56;2.38;;;1.40;;
49678;SDS011;35570;48.218;16.326;2024-02-26T11:18:22;4.85;;;1.45;;
49678;SDS011;35570;48.218;16.326;2024-02-26T11:20:51;5.22;;;1.48;;
49678;SDS011;35570;48.218;16.326;2024-02-26T11:23:20;3.22;;;1.60;;
49678;SDS011;35570;48.218;16.326;2024-02-26T11:25:45;2.67;;;1.70;;
49678;SDS011;35570;48.218;16.326;2024-02-26T11:28:13;3.80;;;1.83;;
49678;SDS011;35570;48.218;16.326;2024-02-26T11:30:44;2.17;;;1.30;;
49678;SDS011;35570;48.218;16.326;2024-02-26T11:33:13;2.75;;;1.30;;
49678;SDS011;35570;48.218;16.326;2024-02-26T11:35:40;3.85;;;1.30;;
49678;SDS011;35570;48.218;16.326;2024-02-26T11:38:06;2.85;;;1.00;;
49678;SDS011;35570;48.218;16.326;2024-02-26T11:40:32;2.45;;;1.10;;
49678;SDS011;35570;48.218;16.326;2024-02-26T11:46:47;2.55;;;1.00;;
49678;SDS011;35570;48.218;16.326;2024-02-26T11:52:23;2.35;;;0.98;;
49678;SDS011;35570;48.218;16.326;2024-02-26T11:54:50;4.30;;;1.20;;
49678;SDS011;35570;48.218;16.326;2024-02-26T12:00:35;8.00;;;1.20;;
49678;SDS011;35570;48.218;16.326;2024-02-26T12:03:00;4.00;;;1.10;;
49678;SDS011;35570;48.218;16.326;2024-02-26T12:05:34;2.50;;;1.13;;
49678;SDS011;35570;48.218;16.326;2024-02-26T12:08:05;4.60;;;0.85;;
49678;SDS011;35570;48.218;16.326;2024-02-26T12:10:33;4.38;;;1.10;;
49678;SDS011;35570;48.218;16.326;2024-02-26T12:13:15;2.17;;;1.10;;
49678;SDS011;35570;48.218;16.326;2024-02-26T12:15:47;3.28;;;1.20;;
49678;SDS011;35570;48.218;16.326;2024-02-26T12:18:21;2.75;;;1.02;;
49678;SDS011;35570;48.218;16.326;2024-02-26T12:20:57;3.33;;;0.98;;
49678;SDS011;35570;48.218;16.326;2024-02-26T12:23:27;2.70;;;1.38;;
49678;SDS011;35570;48.218;16.326;2024-02-26T12:25:58;4.53;;;1.20;;
49678;SDS011;35570;48.218;16.326;2024-02-26T12:28:31;2.05;;;0.93;;
49678;SDS011;35570;48.218;16.326;2024-02-26T12:31:01;2.80;;;0.90;;
49678;SDS011;35570;48.218;16.326;2024-02-26T12:33:27;1.65;;;0.98;;
49678;SDS011;35570;48.218;16.326;2024-02-26T12:35:53;1.30;;;0.90;;
49678;SDS011;35570;48.218;16.326;2024-02-26T12:38:19;2.70;;;1.08;;
49678;SDS011;35570;48.218;16.326;2024-02-26T12:40:45;1.75;;;0.90;;
49678;SDS011;35570;48.218;16.326;2024-02-26T12:43:11;4.38;;;1.10;;
49678;SDS011;35570;48.218;16.326;2024-02-26T12:45:41;3.30;;;1.25;;
49678;SDS011;35570;48.218;16.326;2024-02-26T12:48:07;2.63;;;1.20;;
49678;SDS011;35570;48.218;16.326;2024-02-26T12:54:01;5.25;;;1.50;;
49678;SDS011;35570;48.218;16.326;2024-02-26T12:56:27;2.35;;;1.10;;
49678;SDS011;35570;48.218;16.326;2024-02-26T12:58:53;3.63;;;1.27;;
49678;SDS011;35570;48.218;16.326;2024-02-26T13:04:04;2.95;;;1.10;;
49678;SDS011;35570;48.218;16.326;2024-02-26T13:06:32;3.10;;;1.27;;
49678;SDS011;35570;48.218;16.326;2024-02-26T13:08:58;1.75;;;1.15;;
49678;SDS011;35570;48.218;16.326;2024-02-26T13:14:47;2.35;;;0.98;;
49678;SDS011;35570;48.218;16.326;2024-02-26T13:20:26;3.85;;;2.47;;
49678;SDS011;35570;48.218;16.326;2024-02-26T13:23:05;3.90;;;1.42;;
49678;SDS011;35570;48.218;16.326;2024-02-26T13:25:32;2.72;;;1.48;;
49678;SDS011;35570;48.218;16.326;2024-02-26T13:30:41;3.28;;;1.05;;
49678;SDS011;35570;48.218;16.326;2024-02-26T13:33:14;2.55;;;1.30;;
49678;SDS011;35570;48.218;16.326;2024-02-26T13:35:40;2.50;;;0.98;;
49678;SDS011;35570;48.218;16.326;2024-02-26T13:38:06;6.93;;;1.85;;
49678;SDS011;35570;48.218;16.326;2024-02-26T13:40:32;6.65;;;1.10;;
49678;SDS011;35570;48.218;16.326;2024-02-26T13:46:04;2.72;;;0.90;;
49678;SDS011;35570;48.218;16.326;2024-02-26T13:48:30;3.65;;;1.38;;
49678;SDS011;35570;48.218;16.326;2024-02-26T13:50:57;5.03;;;1.30;;
49678;SDS011;35570;48.218;16.326;2024-02-26T13:56:32;5.00;;;0.90;;
49678;SDS011;35570;48.218;16.326;2024-02-26T13:58:58;4.03;;;0.90;;
49678;SDS011;35570;48.218;16.326;2024-02-26T14:01:24;1.65;;;1.05;;
49678;SDS011;35570;48.218;16.326;2024-02-26T14:03:50;3.28;;;1.20;;
49678;SDS011;35570;48.218;16.326;2024-02-26T14:06:16;4.05;;;1.10;;
49678;SDS011;35570;48.218;16.326;2024-02-26T14:08:41;3.97;;;0.90;;
49678;SDS011;35570;48.218;16.326;2024-02-26T14:11:07;3.03;;;1.50;;
49678;SDS011;35570;48.218;16.326;2024-02-26T14:13:33;3.20;;;1.00;;
49678;SDS011;35570;48.218;16.326;2024-02-26T14:15:59;3.08;;;0.95;;
49678;SDS011;35570;48.218;16.326;2024-02-26T14:18:24;3.00;;;1.02;;
49678;SDS011;35570;48.218;16.326;2024-02-26T14:20:50;1.52;;;1.00;;
49678;SDS011;35570;48.218;16.326;2024-02-26T14:29:45;6.32;;;1.30;;
49678;SDS011;35570;48.218;16.326;2024-02-26T14:32:11;3.72;;;1.10;;
49678;SDS011;35570;48.218;16.326;2024-02-26T14:34:38;4.95;;;1.60;;
49678;SDS011;35570;48.218;16.326;2024-02-26T14:37:04;2.58;;;1.00;;
49678;SDS011;35570;48.218;16.326;2024-02-26T14:39:31;2.45;;;1.13;;
49678;SDS011;35570;48.218;16.326;2024-02-26T14:41:57;1.85;;;0.75;;
49678;SDS011;35570;48.218;16.326;2024-02-26T14:44:23;2.60;;;0.75;;
49678;SDS011;35570;48.218;16.326;2024-02-26T14:46:49;2.45;;;0.90;;
49678;SDS011;35570;48.218;16.326;2024-02-26T14:49:15;3.75;;;1.13;;
49678;SDS011;35570;48.218;16.326;2024-02-26T14:51:41;4.13;;;1.10;;
49678;SDS011;35570;48.218;16.326;2024-02-26T14:54:07;3.63;;;1.17;;
49678;SDS011;35570;48.218;16.326;2024-02-26T14:56:33;3.63;;;1.20;;
49678;SDS011;35570;48.218;16.326;2024-02-26T14:58:58;2.08;;;1.30;;
49678;SDS011;35570;48.218;16.326;2024-02-26T15:01:24;4.80;;;1.35;;
49678;SDS011;35570;48.218;16.326;2024-02-26T15:03:50;2.75;;;0.90;;
49678;SDS011;35570;48.218;16.326;2024-02-26T15:06:16;4.20;;;1.90;;
49678;SDS011;35570;48.218;16.326;2024-02-26T15:08:41;3.03;;;1.10;;
49678;SDS011;35570;48.218;16.326;2024-02-26T15:11:10;4.57;;;1.13;;
49678;SDS011;35570;48.218;16.326;2024-02-26T15:13:36;2.70;;;1.23;;
49678;SDS011;35570;48.218;16.326;2024-02-26T15:16:02;5.20;;;2.60;;
49678;SDS011;35570;48.218;16.326;2024-02-26T15:18:27;3.95;;;1.30;;
49678;SDS011;35570;48.218;16.326;2024-02-26T15:24:15;3.13;;;1.35;;
49678;SDS011;35570;48.218;16.326;2024-02-26T15:26:42;2.08;;;0.95;;
49678;SDS011;35570;48.218;16.326;2024-02-26T15:29:08;2.95;;;1.20;;
49678;SDS011;35570;48.218;16.326;2024-02-26T15:31:34;1.50;;;0.90;;
49678;SDS011;35570;48.218;16.326;2024-02-26T15:34:00;3.60;;;1.15;;
49678;SDS011;35570;48.218;16.326;2024-02-26T15:36:26;4.88;;;1.40;;
49678;SDS011;35570;48.218;16.326;2024-02-26T15:38:51;3.97;;;1.15;;
49678;SDS011;35570;48.218;16.326;2024-02-26T15:41:17;3.22;;;1.40;;
49678;SDS011;35570;48.218;16.326;2024-02-26T15:43:43;4.95;;;1.67;;
49678;SDS011;35570;48.218;16.326;2024-02-26T15:46:08;6.53;;;1.40;;
49678;SDS011;35570;48.218;16.326;2024-02-26T15:48:35;3.30;;;1.70;;
49678;SDS011;35570;48.218;16.326;2024-02-26T15:51:02;3.92;;;1.52;;
49678;SDS011;35570;48.218;16.326;2024-02-26T15:53:27;4.38;;;1.70;;
49678;SDS011;35570;48.218;16.326;2024-02-26T15:55:53;7.78;;;1.38;;
49678;SDS011;35570;48.218;16.326;2024-02-26T15:58:19;2.55;;;1.30;;
49678;SDS011;35570;48.218;16.326;2024-02-26T16:00:45;3.60;;;1.60;;
49678;SDS011;35570;48.218;16.326;2024-02-26T16:03:11;2.13;;;1.15;;
49678;SDS011;35570;48.218;16.326;2024-02-26T16:05:38;3.92;;;1.27;;
49678;SDS011;35570;48.218;16.326;2024-02-26T16:08:25;5.45;;;1.70;;
49678;SDS011;35570;48.218;16.326;2024-02-26T16:10:49;2.53;;;1.25;;
49678;SDS011;35570;48.218;16.326;2024-02-26T16:13:15;4.28;;;1.80;;
49678;SDS011;35570;48.218;16.326;2024-02-26T16:15:50;4.78;;;2.25;;
49678;SDS011;35570;48.218;16.326;2024-02-26T16:18:22;5.20;;;1.40;;
49678;SDS011;35570;48.218;16.326;2024-02-26T16:20:48;3.20;;;1.40;;
49678;SDS011;35570;48.218;16.326;2024-02-26T16:23:13;3.42;;;1.73;;
49678;SDS011;35570;48.218;16.326;2024-02-26T16:25:39;2.40;;;1.40;;
49678;SDS011;35570;48.218;16.326;2024-02-26T16:28:04;3.63;;;1.52;;
49678;SDS011;35570;48.218;16.326;2024-02-26T16:30:36;3.83;;;1.75;;
49678;SDS011;35570;48.218;16.326;2024-02-26T16:33:01;3.72;;;1.40;;
49678;SDS011;35570;48.218;16.326;2024-02-26T16:35:27;4.32;;;1.70;;
49678;SDS011;35570;48.218;16.326;2024-02-26T16:37:53;3.83;;;1.60;;
49678;SDS011;35570;48.218;16.326;2024-02-26T16:40:18;3.45;;;1.60;;
49678;SDS011;35570;48.218;16.326;2024-02-26T16:42:44;4.78;;;1.98;;
49678;SDS011;35570;48.218;16.326;2024-02-26T16:45:10;4.85;;;1.80;;
49678;SDS011;35570;48.218;16.326;2024-02-26T16:53:46;2.58;;;1.55;;
49678;SDS011;35570;48.218;16.326;2024-02-26T16:56:12;3.72;;;1.63;;
49678;SDS011;35570;48.218;16.326;2024-02-26T17:29:01;3.35;;;1.75;;
49678;SDS011;35570;48.218;16.326;2024-02-26T17:38:38;2.60;;;1.83;;
49678;SDS011;35570;48.218;16.326;2024-02-26T19:05:09;4.97;;;2.78;;
49678;SDS011;35570;48.218;16.326;2024-02-26T19:14:17;3.60;;;2.05;;
49678;SDS011;35570;48.218;16.326;2024-02-26T19:16:46;6.78;;;2.65;;
49678;SDS011;35570;48.218;16.326;2024-02-26T19:19:17;4.78;;;2.10;;
49678;SDS011;35570;48.218;16.326;2024-02-26T19:21:44;3.95;;;2.00;;
49678;SDS011;35570;48.218;16.326;2024-02-26T19:24:10;4.85;;;2.60;;
49678;SDS011;35570;48.218;16.326;2024-02-26T19:26:39;4.28;;;2.63;;
49678;SDS011;35570;48.218;16.326;2024-02-26T19:29:06;3.63;;;2.28;;
49678;SDS011;35570;48.218;16.326;2024-02-26T19:31:32;3.90;;;2.38;;
49678;SDS011;35570;48.218;16.326;2024-02-26T19:33:59;4.75;;;2.63;;
49678;SDS011;35570;48.218;16.326;2024-02-26T19:36:28;4.45;;;2.28;;
49678;SDS011;35570;48.218;16.326;2024-02-26T19:38:54;3.92;;;2.67;;
49678;SDS011;35570;48.218;16.326;2024-02-26T19:41:21;3.42;;;2.53;;
49678;SDS011;35570;48.218;16.326;2024-02-26T19:43:47;6.10;;;2.72;;
49678;SDS011;35570;48.218;16.326;2024-02-26T19:46:14;3.70;;;2.00;;
49678;SDS011;35570;48.218;16.326;2024-02-26T19:52:08;3.03;;;2.03;;
49678;SDS011;35570;48.218;16.326;2024-02-26T19:54:37;3.88;;;1.90;;
49678;SDS011;35570;48.218;16.326;2024-02-26T19:57:12;3.63;;;2.35;;
49678;SDS011;35570;48.218;16.326;2024-02-26T20:02:41;5.43;;;3.50;;
49678;SDS011;35570;48.218;16.326;2024-02-26T20:05:08;6.38;;;3.45;;
49678;SDS011;35570;48.218;16.326;2024-02-26T20:13:17;4.72;;;2.20;;
49678;SDS011;35570;48.218;16.326;2024-02-26T20:15:45;3.67;;;1.92;;
49678;SDS011;35570;48.218;16.326;2024-02-26T20:21:16;2.42;;;2.15;;
49678;SDS011;35570;48.218;16.326;2024-02-26T20:23:44;2.97;;;1.80;;
49678;SDS011;35570;48.218;16.326;2024-02-26T20:29:33;3.17;;;1.42;;
49678;SDS011;35570;48.218;16.326;2024-02-26T20:31:59;3.30;;;1.55;;
49678;SDS011;35570;48.218;16.326;2024-02-26T20:34:27;3.75;;;1.70;;
49678;SDS011;35570;48.218;16.326;2024-02-26T20:43:47;3.60;;;1.73;;
49678;SDS011;35570;48.218;16.326;2024-02-26T20:46:13;3.63;;;2.00;;
49678;SDS011;35570;48.218;16.326;2024-02-26T20:48:40;3.17;;;1.63;;
49678;SDS011;35570;48.218;16.326;2024-02-26T20:51:06;4.50;;;1.80;;
49678;SDS011;35570;48.218;16.326;2024-02-26T20:57:00;3.92;;;2.03;;
49678;SDS011;35570;48.218;16.326;2024-02-26T20:59:28;5.90;;;1.95;;
49678;SDS011;35570;48.218;16.326;2024-02-26T21:01:57;5.05;;;2.22;;
49678;SDS011;35570;48.218;16.326;2024-02-26T21:04:24;6.90;;;2.72;;
49678;SDS011;35570;48.218;16.326;2024-02-26T21:10:21;3.00;;;1.88;;
49678;SDS011;35570;48.218;16.326;2024-02-26T21:12:54;3.92;;;2.40;;
49678;SDS011;35570;48.218;16.326;2024-02-26T21:15:39;3.17;;;1.80;;